createdAt,value
2024-02-22T05:02:33.385Z,9.65
2024-02-22T05:05:00.167Z,9.70
2024-02-22T05:07:27.010Z,9.67
2024-02-22T05:09:53.653Z,9.70
2024-02-22T05:12:20.219Z,9.64
2024-02-22T05:14:46.883Z,9.61
2024-02-22T05:17:16.056Z,9.60
2024-02-22T05:19:45.149Z,9.60
2024-02-22T05:22:11.770Z,9.62
2024-02-22T05:24:38.440Z,9.54
2024-02-22T05:27:06.095Z,9.52
2024-02-22T05:29:32.769Z,9.47
2024-02-22T05:31:59.791Z,9.46
2024-02-22T05:34:28.156Z,9.47
2024-02-22T05:36:55.515Z,9.43
2024-02-22T05:39:22.676Z,9.47
2024-02-22T05:41:50.019Z,9.43
2024-02-22T05:44:19.615Z,9.37
2024-02-22T05:46:46.820Z,9.43
2024-02-22T05:49:13.557Z,9.37
2024-02-22T05:51:41.577Z,9.27
2024-02-22T05:54:08.192Z,9.24
2024-02-22T05:56:35.092Z,9.26
2024-02-22T05:59:01.860Z,9.22
2024-02-22T06:01:28.945Z,9.10
2024-02-22T06:03:55.573Z,9.18
2024-02-22T06:06:22.126Z,9.15
2024-02-22T06:08:48.722Z,9.16
2024-02-22T06:11:17.403Z,9.12
2024-02-22T06:13:44.611Z,9.02
2024-02-22T06:16:11.678Z,9.05
2024-02-22T06:18:38.905Z,9.09
2024-02-22T06:21:07.737Z,9.05
2024-02-22T06:23:35.518Z,9.08
2024-02-22T06:26:02.479Z,9.02
2024-02-22T06:28:29.070Z,9.08
2024-02-22T06:30:55.905Z,9.02
2024-02-22T06:33:24.185Z,9.03
2024-02-22T06:35:50.829Z,9.06
2024-02-22T06:38:17.625Z,9.03
2024-02-22T06:40:53.345Z,9.05
2024-02-22T06:43:20.223Z,9.01
2024-02-22T06:45:46.985Z,8.96
2024-02-22T06:48:14.056Z,8.92
2024-02-22T06:50:40.831Z,8.92
2024-02-22T06:53:07.868Z,9.03
2024-02-22T06:55:35.294Z,8.92
2024-02-22T06:58:05.271Z,8.93
2024-02-22T07:00:34.437Z,8.85
2024-02-22T07:03:05.393Z,9.01
2024-02-22T07:05:32.850Z,9.10
2024-02-22T07:08:00.106Z,9.08
2024-02-22T07:10:26.928Z,9.13
2024-02-22T07:12:53.516Z,9.13
2024-02-22T07:15:20.117Z,9.18
2024-02-22T07:17:47.066Z,9.16
2024-02-22T07:20:14.554Z,9.26
2024-02-22T07:22:46.393Z,9.24
2024-02-22T07:25:13.163Z,9.18
2024-02-22T07:27:42.659Z,9.24
2024-02-22T07:30:10.163Z,9.20
2024-02-22T07:32:36.950Z,9.22
2024-02-22T07:35:04.530Z,9.26
2024-02-22T07:37:31.248Z,9.31
2024-02-22T07:39:57.919Z,9.39
2024-02-22T07:42:25.772Z,9.37
2024-02-22T07:44:52.590Z,9.40
2024-02-22T07:47:19.318Z,9.51
2024-02-22T07:49:46.817Z,9.51
2024-02-22T07:52:13.504Z,9.62
2024-02-22T07:54:41.860Z,9.64
2024-02-22T07:57:08.659Z,9.60
2024-02-22T07:59:35.261Z,9.68
2024-02-22T08:02:01.939Z,9.70
2024-02-22T08:04:28.616Z,9.79
2024-02-22T08:06:55.348Z,9.87
2024-02-22T08:09:23.206Z,9.81
2024-02-22T08:11:49.893Z,9.84
2024-02-22T08:14:17.248Z,9.95
2024-02-22T08:16:44.183Z,9.87
2024-02-22T08:19:10.884Z,10.01
2024-02-22T08:21:37.521Z,9.95
2024-02-22T08:24:04.428Z,9.95
2024-02-22T08:26:31.082Z,10.01
2024-02-22T08:28:59.019Z,10.09
2024-02-22T08:31:25.730Z,10.16
2024-02-22T08:33:52.605Z,10.06
2024-02-22T08:36:20.831Z,10.06
2024-02-22T08:38:47.415Z,10.33
2024-02-22T08:41:14.158Z,10.26
2024-02-22T08:43:43.360Z,10.20
2024-02-22T08:46:10.118Z,10.28
2024-02-22T08:48:37.366Z,11.10
2024-02-22T08:51:04.583Z,11.35
2024-02-22T08:53:31.314Z,11.22
2024-02-22T08:55:58.032Z,10.97
2024-02-22T08:58:24.645Z,11.10
2024-02-22T09:00:51.382Z,10.85
2024-02-22T09:03:18.070Z,11.04
2024-02-22T09:05:46.703Z,10.95
2024-02-22T09:08:13.517Z,10.91
2024-02-22T09:10:40.287Z,11.14
2024-02-22T09:13:06.944Z,11.29
2024-02-22T09:15:33.535Z,12.44
2024-02-22T09:18:00.514Z,14.36
2024-02-22T09:20:28.669Z,13.34
2024-02-22T09:22:56.510Z,13.67
2024-02-22T09:25:25.864Z,13.00
2024-02-22T09:27:52.418Z,13.24
2024-02-22T09:30:18.984Z,13.04
2024-02-22T09:32:45.854Z,13.33
2024-02-22T09:35:12.698Z,13.81
2024-02-22T09:37:39.468Z,13.90
2024-02-22T09:40:06.933Z,15.47
2024-02-22T09:42:33.921Z,15.87
2024-02-22T09:45:01.093Z,14.25
2024-02-22T09:47:28.008Z,15.01
2024-02-22T09:49:55.326Z,14.04
2024-02-22T09:52:22.678Z,13.40
2024-02-22T09:54:49.567Z,12.61
2024-02-22T09:57:16.411Z,12.85
2024-02-22T09:59:50.884Z,13.10
2024-02-22T10:02:18.835Z,12.99
2024-02-22T10:04:53.302Z,12.90
2024-02-22T10:07:23.607Z,12.42
2024-02-22T10:09:50.723Z,12.13
2024-02-22T10:12:31.062Z,12.31
2024-02-22T10:14:58.434Z,12.03
2024-02-22T10:17:26.889Z,11.91
2024-02-22T10:20:07.935Z,11.98
2024-02-22T10:22:41.006Z,11.86
2024-02-22T10:25:13.119Z,11.67
2024-02-22T10:27:40.614Z,11.72
2024-02-22T10:30:11.644Z,11.74
2024-02-22T10:32:43.256Z,11.86
2024-02-22T10:35:12.373Z,11.86
2024-02-22T10:37:39.384Z,11.90
2024-02-22T10:40:07.027Z,11.80
2024-02-22T10:42:33.948Z,11.89
2024-02-22T10:45:00.900Z,12.00
2024-02-22T10:47:29.379Z,11.84
2024-02-22T10:49:57.798Z,11.77
2024-02-22T10:52:28.625Z,11.76
2024-02-22T10:55:01.828Z,11.82
2024-02-22T10:57:32.027Z,11.83
2024-02-22T11:00:00.973Z,11.82
2024-02-22T11:02:29.654Z,11.73
2024-02-22T11:05:01.886Z,11.94
2024-02-22T11:07:29.263Z,11.90
2024-02-22T11:10:06.485Z,11.79
2024-02-22T11:12:34.429Z,11.86
2024-02-22T11:15:08.141Z,11.82
2024-02-22T11:17:35.015Z,11.77
2024-02-22T11:20:08.796Z,11.79
2024-02-22T11:22:36.719Z,11.76
2024-02-22T11:25:06.457Z,11.63
2024-02-22T11:27:33.399Z,11.76
2024-02-22T11:30:03.004Z,11.79
2024-02-22T11:32:29.765Z,11.89
2024-02-22T11:34:58.735Z,11.90
2024-02-22T11:37:25.565Z,11.93
2024-02-22T11:39:58.832Z,11.90
2024-02-22T11:42:26.136Z,11.90
2024-02-22T11:44:56.218Z,11.95
2024-02-22T11:47:23.910Z,12.04
2024-02-22T11:49:50.621Z,12.05
2024-02-22T11:52:17.360Z,12.07
2024-02-22T11:54:50.656Z,11.97
2024-02-22T11:57:17.305Z,11.97
2024-02-22T11:59:44.018Z,12.05
2024-02-22T12:02:10.833Z,12.07
2024-02-22T12:04:38.317Z,12.11
2024-02-22T12:07:05.270Z,12.07
2024-02-22T12:09:32.763Z,12.07
2024-02-22T12:11:59.736Z,12.03
2024-02-22T12:14:26.610Z,12.08
2024-02-22T12:16:54.002Z,12.14
2024-02-22T12:19:21.862Z,12.21
2024-02-22T12:21:50.282Z,12.17
2024-02-22T12:24:17.803Z,12.20
2024-02-22T12:26:52.290Z,12.11
2024-02-22T12:29:20.271Z,12.13
2024-02-22T12:31:46.956Z,12.24
2024-02-22T12:34:17.122Z,12.27
2024-02-22T12:36:46.680Z,12.21
2024-02-22T12:39:13.338Z,12.31
2024-02-22T12:41:40.004Z,12.45
2024-02-22T12:44:06.611Z,12.53
2024-02-22T12:46:34.888Z,12.53
2024-02-22T12:49:02.021Z,12.51
2024-02-22T12:51:28.828Z,12.46
2024-02-22T12:53:55.476Z,12.53
2024-02-22T12:56:23.158Z,12.55
2024-02-22T12:58:50.466Z,12.46
2024-02-22T13:01:17.223Z,12.55
2024-02-22T13:03:43.929Z,12.55
2024-02-22T13:06:12.910Z,12.56
2024-02-22T13:08:41.531Z,12.51
2024-02-22T13:11:10.112Z,12.63
2024-02-22T13:13:36.833Z,12.65
2024-02-22T13:16:05.418Z,12.59
2024-02-22T13:18:32.200Z,12.56
2024-02-22T13:20:59.335Z,12.66
2024-02-22T13:23:26.525Z,12.73
2024-02-22T13:25:53.254Z,12.69
2024-02-22T13:28:19.981Z,12.76
2024-02-22T13:30:46.718Z,12.80
2024-02-22T13:33:13.577Z,12.88
2024-02-22T13:35:41.828Z,12.89
2024-02-22T13:38:08.626Z,12.95
2024-02-22T13:40:35.322Z,13.00
2024-02-22T13:43:02.254Z,12.89
2024-02-22T13:45:29.259Z,12.80
2024-02-22T13:47:55.906Z,12.88
2024-02-22T13:50:22.655Z,12.90
2024-02-22T13:52:49.816Z,12.86
2024-02-22T13:55:18.608Z,13.00
2024-02-22T13:57:45.660Z,13.07
2024-02-22T14:00:12.629Z,13.13
2024-02-22T14:02:40.836Z,13.16
2024-02-22T14:05:08.255Z,13.21
2024-02-22T14:07:37.006Z,13.40
2024-02-22T14:10:05.625Z,13.20
2024-02-22T14:12:32.489Z,13.40
2024-02-22T14:14:59.107Z,13.36
2024-02-22T14:17:26.170Z,13.16
2024-02-22T14:19:53.568Z,13.20
2024-02-22T14:22:20.524Z,13.17
2024-02-22T14:24:47.138Z,13.13
2024-02-22T14:27:14.451Z,13.10
2024-02-22T14:29:43.922Z,13.11
2024-02-22T14:32:13.053Z,13.14
2024-02-22T14:34:42.082Z,13.14
2024-02-22T14:37:12.936Z,13.04
2024-02-22T14:39:39.952Z,13.03
2024-02-22T14:42:06.801Z,12.95
2024-02-22T14:44:33.496Z,12.93
2024-02-22T14:47:00.598Z,12.93
2024-02-22T14:49:27.263Z,13.04
2024-02-22T14:51:53.868Z,12.96
2024-02-22T14:54:20.484Z,13.00
2024-02-22T14:56:51.396Z,12.92
2024-02-22T14:59:18.921Z,12.93
2024-02-22T15:01:45.922Z,12.96
2024-02-22T15:04:12.678Z,12.97
2024-02-22T15:06:46.328Z,12.92
2024-02-22T15:09:17.896Z,12.89
2024-02-22T15:11:48.494Z,12.88
2024-02-22T15:14:15.293Z,12.80
2024-02-22T15:16:44.834Z,12.79
2024-02-22T15:19:14.664Z,12.80
2024-02-22T15:21:41.576Z,12.73
2024-02-22T15:24:08.159Z,12.78
2024-02-22T15:26:38.642Z,12.83
2024-02-22T15:29:05.813Z,12.85
2024-02-22T15:31:32.739Z,12.82
2024-02-22T15:34:05.287Z,12.79
2024-02-22T15:36:35.730Z,12.79
2024-02-22T15:39:02.697Z,12.78
2024-02-22T15:41:29.891Z,12.83
2024-02-22T15:43:57.125Z,12.83
2024-02-22T15:46:23.847Z,12.88
2024-02-22T15:48:52.150Z,12.82
2024-02-22T15:51:18.905Z,12.78
2024-02-22T15:53:45.613Z,12.83
2024-02-22T15:56:12.315Z,12.83
2024-02-22T15:58:39.090Z,12.90
2024-02-22T16:01:10.465Z,12.88
2024-02-22T16:03:38.660Z,12.85
2024-02-22T16:06:05.811Z,12.85
2024-02-22T16:08:32.616Z,12.83
2024-02-22T16:10:59.509Z,12.88
2024-02-22T16:13:26.322Z,12.93
2024-02-22T16:15:54.754Z,12.86
2024-02-22T16:18:23.110Z,12.96
2024-02-22T16:20:50.072Z,12.89
2024-02-22T16:23:24.140Z,13.02
2024-02-22T16:25:55.827Z,13.07
2024-02-22T16:28:22.493Z,13.13
2024-02-22T16:30:49.328Z,13.14
2024-02-22T16:33:16.918Z,13.19
2024-02-22T16:35:43.718Z,13.24
2024-02-22T16:38:10.560Z,13.26
2024-02-22T16:40:37.433Z,13.30
2024-02-22T16:43:04.169Z,13.31
2024-02-22T16:45:30.738Z,13.21
2024-02-22T16:47:57.449Z,13.16
2024-02-22T16:50:24.419Z,13.16
2024-02-22T16:52:51.121Z,13.04
2024-02-22T16:55:17.859Z,13.03
2024-02-22T16:57:44.507Z,13.03
2024-02-22T17:00:11.498Z,12.99
2024-02-22T17:02:39.963Z,12.96
2024-02-22T17:05:06.975Z,12.96
2024-02-22T17:07:33.768Z,13.04
2024-02-22T17:10:00.392Z,13.14
2024-02-22T17:12:27.018Z,13.09
2024-02-22T17:14:54.329Z,13.07
2024-02-22T17:17:21.145Z,13.00
2024-02-22T17:19:47.804Z,12.90
2024-02-22T17:22:14.632Z,12.69
2024-02-22T17:24:42.037Z,12.38
2024-02-22T17:27:10.871Z,11.91
2024-02-22T17:29:37.571Z,11.42
2024-02-22T17:32:04.601Z,11.35
2024-02-22T17:34:31.409Z,11.34
2024-02-22T17:36:58.063Z,11.34
2024-02-22T17:39:24.771Z,11.25
2024-02-22T17:41:53.845Z,11.14
2024-02-22T17:44:20.675Z,11.00
2024-02-22T17:46:47.384Z,10.81
2024-02-22T17:49:14.259Z,10.71
2024-02-22T17:51:50.004Z,10.64
2024-02-22T17:54:20.067Z,10.61
2024-02-22T17:56:46.715Z,10.56
2024-02-22T17:59:13.335Z,10.53
2024-02-22T18:01:40.150Z,10.55
2024-02-22T18:04:07.020Z,10.55
2024-02-22T18:06:33.749Z,10.52
2024-02-22T18:09:00.445Z,10.50
2024-02-22T18:11:27.181Z,10.47
2024-02-22T18:13:54.051Z,10.50
2024-02-22T18:16:21.880Z,10.52
2024-02-22T18:18:48.605Z,10.52
2024-02-22T18:21:15.365Z,10.49
2024-02-22T18:23:46.470Z,10.50
2024-02-22T18:26:16.298Z,10.49
2024-02-22T18:28:44.702Z,10.50
2024-02-22T18:31:11.573Z,10.47
2024-02-22T18:33:38.270Z,10.43
2024-02-22T18:36:06.936Z,10.42
2024-02-22T18:38:34.161Z,10.33
2024-02-22T18:41:02.242Z,10.32
2024-02-22T18:43:29.409Z,10.28
2024-02-22T18:45:56.017Z,10.23
2024-02-22T18:48:22.722Z,10.20
2024-02-22T18:50:51.679Z,10.19
2024-02-22T18:53:18.470Z,10.08
2024-02-22T18:55:45.041Z,9.94
2024-02-22T18:58:11.942Z,9.87
2024-02-22T19:00:38.699Z,9.77
2024-02-22T19:03:10.672Z,9.71
2024-02-22T19:05:41.166Z,9.57
2024-02-22T19:08:08.378Z,9.43
2024-02-22T19:10:35.870Z,9.19
2024-02-22T19:13:03.740Z,8.98
2024-02-22T19:15:30.488Z,8.85
2024-02-22T19:17:58.055Z,8.72
2024-02-22T19:20:25.087Z,8.62
2024-02-22T19:22:54.656Z,8.43
2024-02-22T19:25:21.286Z,8.33
2024-02-22T19:27:47.952Z,8.31
2024-02-22T19:30:15.416Z,8.26
2024-02-22T19:32:44.000Z,8.23
2024-02-22T19:35:20.292Z,8.20
2024-02-22T19:37:48.957Z,8.23
2024-02-22T19:40:16.008Z,8.19
2024-02-22T19:42:43.000Z,8.19
2024-02-22T19:45:11.991Z,8.16
2024-02-22T19:47:39.329Z,8.09
2024-02-22T19:50:06.824Z,8.12
2024-02-22T19:52:33.417Z,7.97
2024-02-22T19:55:01.117Z,7.97
2024-02-22T19:57:27.871Z,7.86
2024-02-22T19:59:55.364Z,7.85
2024-02-22T20:02:22.197Z,7.83
2024-02-22T20:04:50.762Z,7.90
2024-02-22T20:07:17.712Z,7.81
2024-02-22T20:09:44.367Z,7.72
2024-02-22T20:12:11.334Z,7.61
2024-02-22T20:14:38.103Z,7.41
2024-02-22T20:17:05.104Z,7.28
2024-02-22T20:19:31.801Z,7.10
2024-02-22T20:21:58.596Z,7.08
2024-02-22T20:24:25.251Z,7.04
2024-02-22T20:26:52.295Z,7.04
2024-02-22T20:29:19.026Z,6.97
2024-02-22T20:31:47.481Z,7.04
2024-02-22T20:34:14.373Z,7.01
2024-02-22T20:36:43.187Z,7.07
2024-02-22T20:39:10.030Z,7.10
2024-02-22T20:41:37.676Z,6.99
2024-02-22T20:44:05.058Z,7.00
2024-02-22T20:46:31.873Z,6.95
2024-02-22T20:48:59.319Z,6.97
2024-02-22T20:51:29.458Z,6.90
2024-02-22T20:53:57.339Z,6.97
2024-02-22T20:56:24.540Z,6.97
2024-02-22T20:58:51.591Z,7.00
2024-02-22T21:01:18.819Z,6.99
2024-02-22T21:03:46.426Z,6.96
2024-02-22T21:06:20.262Z,6.96
2024-02-22T21:08:48.330Z,6.90
2024-02-22T21:11:15.329Z,6.89
2024-02-22T21:13:42.139Z,6.80
2024-02-22T21:16:09.075Z,6.75
2024-02-22T21:18:36.199Z,6.68
2024-02-22T21:21:04.116Z,6.64
2024-02-22T21:23:30.929Z,6.55
2024-02-22T21:25:57.601Z,6.42
2024-02-22T21:28:24.370Z,6.22
2024-02-22T21:30:51.290Z,6.18
2024-02-22T21:33:21.826Z,5.98
2024-02-22T21:35:49.584Z,5.97
2024-02-22T21:38:16.344Z,5.89
2024-02-22T21:40:43.014Z,5.91
2024-02-22T21:43:09.585Z,5.94
2024-02-22T21:45:36.749Z,5.77
2024-02-22T21:48:07.900Z,5.71
2024-02-22T21:50:35.270Z,5.65
2024-02-22T21:53:03.763Z,5.50
2024-02-22T21:55:30.429Z,5.45
2024-02-22T21:57:57.038Z,5.43
2024-02-22T22:00:23.794Z,5.46
2024-02-22T22:02:55.310Z,5.49
2024-02-22T22:05:23.603Z,5.41
2024-02-22T22:07:51.805Z,5.22
2024-02-22T22:10:18.593Z,5.17
2024-02-22T22:12:45.331Z,5.12
2024-02-22T22:15:12.050Z,5.15
2024-02-22T22:17:40.372Z,5.10
2024-02-22T22:20:08.215Z,5.14
2024-02-22T22:22:34.944Z,5.24
2024-02-22T22:25:02.199Z,5.15
2024-02-22T22:27:28.949Z,5.14
2024-02-22T22:29:56.529Z,5.01
2024-02-22T22:32:23.384Z,5.02
2024-02-22T22:34:50.281Z,4.97
2024-02-22T22:37:20.511Z,4.90
2024-02-22T22:39:47.720Z,4.88
2024-02-22T22:42:14.365Z,4.83
2024-02-22T22:44:41.130Z,4.88
2024-02-22T22:47:07.760Z,4.94
2024-02-22T22:49:34.544Z,5.00
2024-02-22T22:52:03.981Z,5.08
2024-02-22T22:54:30.831Z,5.11
2024-02-22T22:56:57.559Z,5.21
2024-02-22T22:59:26.028Z,5.22
